sensor_id;sensor_type;location;lat;lon;timestamp;P1;durP1;ratioP1;P2;durP2;ratioP2
43038;SDS011;62252;50.668;19.530;2022-10-04T00:01:47;422.98;;;386.67;;
43038;SDS011;62252;50.668;19.530;2022-10-04T00:04:23;437.33;;;398.08;;
43038;SDS011;62252;50.668;19.530;2022-10-04T00:06:58;446.35;;;408.73;;
43038;SDS011;62252;50.668;19.530;2022-10-04T00:09:39;451.75;;;412.00;;
43038;SDS011;62252;50.668;19.530;2022-10-04T00:12:16;429.90;;;392.83;;
43038;SDS011;62252;50.668;19.530;2022-10-04T00:14:51;439.73;;;400.38;;
43038;SDS011;62252;50.668;19.530;2022-10-04T00:17:24;436.70;;;399.38;;
43038;SDS011;62252;50.668;19.530;2022-10-04T00:19:56;432.73;;;395.70;;
43038;SDS011;62252;50.668;19.530;2022-10-04T00:22:27;456.15;;;416.38;;
43038;SDS011;62252;50.668;19.530;2022-10-04T00:31:13;427.55;;;389.67;;
43038;SDS011;62252;50.668;19.530;2022-10-04T00:33:46;419.10;;;381.85;;
43038;SDS011;62252;50.668;19.530;2022-10-04T00:39:24;445.88;;;406.42;;
43038;SDS011;62252;50.668;19.530;2022-10-04T00:42:22;434.50;;;397.42;;
43038;SDS011;62252;50.668;19.530;2022-10-04T00:45:12;445.52;;;406.02;;
43038;SDS011;62252;50.668;19.530;2022-10-04T00:47:55;424.65;;;387.13;;
43038;SDS011;62252;50.668;19.530;2022-10-04T00:50:42;440.58;;;402.48;;
43038;SDS011;62252;50.668;19.530;2022-10-04T00:53:18;422.67;;;384.50;;
43038;SDS011;62252;50.668;19.530;2022-10-04T00:55:57;429.10;;;391.67;;
43038;SDS011;62252;50.668;19.530;2022-10-04T00:58:34;437.60;;;400.48;;
43038;SDS011;62252;50.668;19.530;2022-10-04T01:01:09;428.52;;;391.77;;
43038;SDS011;62252;50.668;19.530;2022-10-04T01:03:40;438.15;;;400.10;;
43038;SDS011;62252;50.668;19.530;2022-10-04T01:06:13;440.45;;;400.42;;
43038;SDS011;62252;50.668;19.530;2022-10-04T01:08:44;440.17;;;402.20;;
43038;SDS011;62252;50.668;19.530;2022-10-04T01:11:17;430.50;;;392.63;;
43038;SDS011;62252;50.668;19.530;2022-10-04T01:13:54;455.67;;;414.50;;
43038;SDS011;62252;50.668;19.530;2022-10-04T01:16:27;426.02;;;388.42;;
43038;SDS011;62252;50.668;19.530;2022-10-04T01:21:57;445.38;;;408.00;;
43038;SDS011;62252;50.668;19.530;2022-10-04T01:24:42;447.95;;;409.05;;
43038;SDS011;62252;50.668;19.530;2022-10-04T01:30:02;442.17;;;404.88;;
43038;SDS011;62252;50.668;19.530;2022-10-04T01:32:36;450.98;;;413.13;;
43038;SDS011;62252;50.668;19.530;2022-10-04T01:35:08;453.48;;;413.33;;
43038;SDS011;62252;50.668;19.530;2022-10-04T01:37:45;439.42;;;402.60;;
43038;SDS011;62252;50.668;19.530;2022-10-04T01:40:19;448.75;;;410.90;;
43038;SDS011;62252;50.668;19.530;2022-10-04T01:42:49;455.23;;;415.55;;
43038;SDS011;62252;50.668;19.530;2022-10-04T01:45:25;439.00;;;400.73;;
43038;SDS011;62252;50.668;19.530;2022-10-04T01:48:04;433.70;;;394.27;;
43038;SDS011;62252;50.668;19.530;2022-10-04T01:50:39;423.73;;;386.73;;
43038;SDS011;62252;50.668;19.530;2022-10-04T01:53:17;434.60;;;394.85;;
43038;SDS011;62252;50.668;19.530;2022-10-04T01:56:02;434.77;;;397.55;;
43038;SDS011;62252;50.668;19.530;2022-10-04T01:58:39;459.20;;;418.67;;
43038;SDS011;62252;50.668;19.530;2022-10-04T02:01:13;452.90;;;414.58;;
43038;SDS011;62252;50.668;19.530;2022-10-04T02:03:51;459.30;;;419.17;;
43038;SDS011;62252;50.668;19.530;2022-10-04T02:06:26;420.67;;;384.13;;
43038;SDS011;62252;50.668;19.530;2022-10-04T02:08:58;426.67;;;390.30;;
43038;SDS011;62252;50.668;19.530;2022-10-04T02:11:33;432.92;;;394.15;;
43038;SDS011;62252;50.668;19.530;2022-10-04T02:14:10;423.05;;;386.77;;
43038;SDS011;62252;50.668;19.530;2022-10-04T02:16:43;455.08;;;415.05;;
43038;SDS011;62252;50.668;19.530;2022-10-04T02:19:18;444.05;;;406.60;;
43038;SDS011;62252;50.668;19.530;2022-10-04T02:21:50;435.13;;;397.58;;
43038;SDS011;62252;50.668;19.530;2022-10-04T02:24:21;459.45;;;418.48;;
43038;SDS011;62252;50.668;19.530;2022-10-04T02:26:54;425.73;;;388.75;;
43038;SDS011;62252;50.668;19.530;2022-10-04T02:29:24;422.20;;;385.38;;
43038;SDS011;62252;50.668;19.530;2022-10-04T02:31:55;442.75;;;403.67;;
43038;SDS011;62252;50.668;19.530;2022-10-04T02:34:39;435.65;;;397.88;;
43038;SDS011;62252;50.668;19.530;2022-10-04T02:37:11;459.25;;;418.35;;
43038;SDS011;62252;50.668;19.530;2022-10-04T02:39:42;451.33;;;412.60;;
43038;SDS011;62252;50.668;19.530;2022-10-04T02:42:20;462.25;;;422.20;;
43038;SDS011;62252;50.668;19.530;2022-10-04T02:45:01;460.45;;;420.35;;
43038;SDS011;62252;50.668;19.530;2022-10-04T02:47:42;453.85;;;414.33;;
43038;SDS011;62252;50.668;19.530;2022-10-04T02:50:20;444.20;;;406.17;;
43038;SDS011;62252;50.668;19.530;2022-10-04T02:52:58;450.23;;;411.38;;
43038;SDS011;62252;50.668;19.530;2022-10-04T02:55:37;430.05;;;392.52;;
43038;SDS011;62252;50.668;19.530;2022-10-04T02:58:12;468.13;;;428.38;;
43038;SDS011;62252;50.668;19.530;2022-10-04T03:00:46;481.67;;;438.33;;
43038;SDS011;62252;50.668;19.530;2022-10-04T03:03:20;449.45;;;409.00;;
43038;SDS011;62252;50.668;19.530;2022-10-04T03:05:55;452.63;;;411.45;;
43038;SDS011;62252;50.668;19.530;2022-10-04T03:08:30;451.65;;;411.60;;
43038;SDS011;62252;50.668;19.530;2022-10-04T03:11:12;422.52;;;383.77;;
43038;SDS011;62252;50.668;19.530;2022-10-04T03:13:48;433.05;;;394.90;;
43038;SDS011;62252;50.668;19.530;2022-10-04T03:16:20;432.50;;;394.27;;
43038;SDS011;62252;50.668;19.530;2022-10-04T03:18:51;437.10;;;397.23;;
43038;SDS011;62252;50.668;19.530;2022-10-04T03:21:24;466.73;;;426.63;;
43038;SDS011;62252;50.668;19.530;2022-10-04T03:23:56;452.50;;;413.15;;
43038;SDS011;62252;50.668;19.530;2022-10-04T03:26:28;442.83;;;403.15;;
43038;SDS011;62252;50.668;19.530;2022-10-04T03:29:07;438.70;;;399.67;;
43038;SDS011;62252;50.668;19.530;2022-10-04T03:31:40;437.67;;;397.13;;
43038;SDS011;62252;50.668;19.530;2022-10-04T03:34:13;415.02;;;378.58;;
43038;SDS011;62252;50.668;19.530;2022-10-04T03:36:45;418.73;;;382.35;;
43038;SDS011;62252;50.668;19.530;2022-10-04T03:39:19;420.42;;;382.23;;
43038;SDS011;62252;50.668;19.530;2022-10-04T03:41:58;429.15;;;391.38;;
43038;SDS011;62252;50.668;19.530;2022-10-04T03:44:34;452.92;;;412.13;;
43038;SDS011;62252;50.668;19.530;2022-10-04T03:47:06;458.15;;;418.63;;
43038;SDS011;62252;50.668;19.530;2022-10-04T03:49:39;437.13;;;397.48;;
43038;SDS011;62252;50.668;19.530;2022-10-04T03:52:14;429.92;;;391.63;;
43038;SDS011;62252;50.668;19.530;2022-10-04T03:57:20;431.20;;;391.30;;
43038;SDS011;62252;50.668;19.530;2022-10-04T03:59:54;425.00;;;387.50;;
43038;SDS011;62252;50.668;19.530;2022-10-04T04:02:27;435.38;;;397.67;;
43038;SDS011;62252;50.668;19.530;2022-10-04T04:05:03;438.17;;;400.25;;
43038;SDS011;62252;50.668;19.530;2022-10-04T04:07:42;456.92;;;418.38;;
43038;SDS011;62252;50.668;19.530;2022-10-04T04:10:16;449.98;;;409.05;;
43038;SDS011;62252;50.668;19.530;2022-10-04T04:12:52;447.70;;;407.35;;
43038;SDS011;62252;50.668;19.530;2022-10-04T04:15:30;460.63;;;418.08;;
43038;SDS011;62252;50.668;19.530;2022-10-04T04:18:02;470.45;;;428.10;;
43038;SDS011;62252;50.668;19.530;2022-10-04T04:20:34;465.63;;;424.67;;
43038;SDS011;62252;50.668;19.530;2022-10-04T04:23:10;443.38;;;400.75;;
43038;SDS011;62252;50.668;19.530;2022-10-04T04:25:54;432.90;;;392.02;;
43038;SDS011;62252;50.668;19.530;2022-10-04T04:28:29;431.08;;;389.33;;
43038;SDS011;62252;50.668;19.530;2022-10-04T04:31:05;453.80;;;412.05;;
43038;SDS011;62252;50.668;19.530;2022-10-04T04:33:43;447.58;;;405.70;;
43038;SDS011;62252;50.668;19.530;2022-10-04T04:36:17;476.60;;;433.05;;
43038;SDS011;62252;50.668;19.530;2022-10-04T04:38:48;465.30;;;422.27;;
43038;SDS011;62252;50.668;19.530;2022-10-04T04:41:30;493.50;;;448.73;;
43038;SDS011;62252;50.668;19.530;2022-10-04T04:44:02;468.27;;;425.10;;
43038;SDS011;62252;50.668;19.530;2022-10-04T04:46:47;476.88;;;434.23;;
43038;SDS011;62252;50.668;19.530;2022-10-04T04:49:18;471.38;;;429.35;;
43038;SDS011;62252;50.668;19.530;2022-10-04T04:51:49;487.05;;;442.98;;
43038;SDS011;62252;50.668;19.530;2022-10-04T04:54:22;487.65;;;445.70;;
43038;SDS011;62252;50.668;19.530;2022-10-04T04:56:53;500.88;;;457.13;;
43038;SDS011;62252;50.668;19.530;2022-10-04T04:59:25;498.23;;;453.13;;
43038;SDS011;62252;50.668;19.530;2022-10-04T05:02:01;486.83;;;443.98;;
43038;SDS011;62252;50.668;19.530;2022-10-04T05:04:34;496.38;;;451.52;;
43038;SDS011;62252;50.668;19.530;2022-10-04T05:07:04;493.63;;;449.45;;
43038;SDS011;62252;50.668;19.530;2022-10-04T05:09:44;487.83;;;444.73;;
43038;SDS011;62252;50.668;19.530;2022-10-04T05:12:15;493.88;;;450.10;;
43038;SDS011;62252;50.668;19.530;2022-10-04T05:14:49;480.58;;;438.60;;
43038;SDS011;62252;50.668;19.530;2022-10-04T05:17:25;486.25;;;443.17;;
43038;SDS011;62252;50.668;19.530;2022-10-04T05:20:00;478.25;;;435.58;;
43038;SDS011;62252;50.668;19.530;2022-10-04T05:22:32;491.92;;;447.80;;
43038;SDS011;62252;50.668;19.530;2022-10-04T05:25:05;508.65;;;462.65;;
43038;SDS011;62252;50.668;19.530;2022-10-04T05:27:42;482.58;;;438.95;;
43038;SDS011;62252;50.668;19.530;2022-10-04T05:30:19;496.10;;;450.40;;
43038;SDS011;62252;50.668;19.530;2022-10-04T05:33:04;477.23;;;433.58;;
43038;SDS011;62252;50.668;19.530;2022-10-04T05:35:46;484.80;;;440.25;;
43038;SDS011;62252;50.668;19.530;2022-10-04T05:38:30;470.85;;;428.65;;
43038;SDS011;62252;50.668;19.530;2022-10-04T05:41:10;475.92;;;431.35;;
43038;SDS011;62252;50.668;19.530;2022-10-04T05:43:49;473.42;;;431.73;;
43038;SDS011;62252;50.668;19.530;2022-10-04T05:46:22;487.00;;;442.67;;
43038;SDS011;62252;50.668;19.530;2022-10-04T05:49:00;474.02;;;432.10;;
43038;SDS011;62252;50.668;19.530;2022-10-04T05:51:46;487.90;;;444.17;;
43038;SDS011;62252;50.668;19.530;2022-10-04T05:54:18;479.50;;;436.38;;
43038;SDS011;62252;50.668;19.530;2022-10-04T05:57:00;476.75;;;434.90;;
43038;SDS011;62252;50.668;19.530;2022-10-04T06:00:00;483.42;;;440.48;;
43038;SDS011;62252;50.668;19.530;2022-10-04T06:02:51;461.08;;;420.23;;
43038;SDS011;62252;50.668;19.530;2022-10-04T06:05:46;472.48;;;428.83;;
43038;SDS011;62252;50.668;19.530;2022-10-04T06:08:34;466.35;;;424.95;;
43038;SDS011;62252;50.668;19.530;2022-10-04T06:11:17;463.83;;;422.17;;
43038;SDS011;62252;50.668;19.530;2022-10-04T06:17:10;480.30;;;436.88;;
43038;SDS011;62252;50.668;19.530;2022-10-04T06:20:02;481.17;;;438.20;;
43038;SDS011;62252;50.668;19.530;2022-10-04T06:22:55;480.85;;;436.50;;
43038;SDS011;62252;50.668;19.530;2022-10-04T06:25:28;471.45;;;430.00;;
43038;SDS011;62252;50.668;19.530;2022-10-04T06:28:09;469.90;;;426.48;;
43038;SDS011;62252;50.668;19.530;2022-10-04T06:30:48;486.23;;;443.98;;
43038;SDS011;62252;50.668;19.530;2022-10-04T06:33:37;501.45;;;456.08;;
43038;SDS011;62252;50.668;19.530;2022-10-04T06:36:36;480.60;;;437.52;;
43038;SDS011;62252;50.668;19.530;2022-10-04T06:39:29;488.50;;;445.02;;
43038;SDS011;62252;50.668;19.530;2022-10-04T06:42:13;469.88;;;428.45;;
43038;SDS011;62252;50.668;19.530;2022-10-04T06:45:16;488.02;;;443.45;;
43038;SDS011;62252;50.668;19.530;2022-10-04T06:48:02;487.67;;;444.20;;
43038;SDS011;62252;50.668;19.530;2022-10-04T06:50:45;546.25;;;495.20;;
43038;SDS011;62252;50.668;19.530;2022-10-04T06:53:22;563.30;;;511.27;;
43038;SDS011;62252;50.668;19.530;2022-10-04T06:56:14;529.17;;;480.38;;
43038;SDS011;62252;50.668;19.530;2022-10-04T06:59:21;548.13;;;497.75;;
43038;SDS011;62252;50.668;19.530;2022-10-04T07:02:12;579.10;;;525.78;;
43038;SDS011;62252;50.668;19.530;2022-10-04T07:04:48;477.33;;;435.95;;
43038;SDS011;62252;50.668;19.530;2022-10-04T07:07:24;502.05;;;456.73;;
43038;SDS011;62252;50.668;19.530;2022-10-04T07:10:13;548.10;;;498.27;;
43038;SDS011;62252;50.668;19.530;2022-10-04T07:13:03;522.88;;;475.90;;
43038;SDS011;62252;50.668;19.530;2022-10-04T07:15:43;508.05;;;463.00;;
43038;SDS011;62252;50.668;19.530;2022-10-04T07:18:20;510.15;;;462.88;;
43038;SDS011;62252;50.668;19.530;2022-10-04T07:20:57;497.02;;;451.85;;
43038;SDS011;62252;50.668;19.530;2022-10-04T07:23:33;488.88;;;445.92;;
43038;SDS011;62252;50.668;19.530;2022-10-04T07:26:13;492.92;;;450.15;;
43038;SDS011;62252;50.668;19.530;2022-10-04T07:28:51;498.38;;;455.15;;
43038;SDS011;62252;50.668;19.530;2022-10-04T07:31:37;502.85;;;459.80;;
43038;SDS011;62252;50.668;19.530;2022-10-04T07:34:13;479.38;;;437.27;;
43038;SDS011;62252;50.668;19.530;2022-10-04T07:36:47;481.25;;;439.02;;
43038;SDS011;62252;50.668;19.530;2022-10-04T07:39:21;482.08;;;440.52;;
43038;SDS011;62252;50.668;19.530;2022-10-04T07:41:56;521.20;;;475.67;;
43038;SDS011;62252;50.668;19.530;2022-10-04T07:44:39;525.35;;;478.70;;
43038;SDS011;62252;50.668;19.530;2022-10-04T07:47:17;530.45;;;482.17;;
43038;SDS011;62252;50.668;19.530;2022-10-04T07:49:49;533.80;;;488.02;;
43038;SDS011;62252;50.668;19.530;2022-10-04T07:52:25;492.23;;;448.85;;
43038;SDS011;62252;50.668;19.530;2022-10-04T07:55:14;476.65;;;435.58;;
43038;SDS011;62252;50.668;19.530;2022-10-04T07:57:54;502.02;;;458.27;;
43038;SDS011;62252;50.668;19.530;2022-10-04T08:00:46;483.58;;;441.08;;
43038;SDS011;62252;50.668;19.530;2022-10-04T08:09:08;429.27;;;387.52;;
43038;SDS011;62252;50.668;19.530;2022-10-04T08:11:49;443.08;;;399.60;;
43038;SDS011;62252;50.668;19.530;2022-10-04T08:14:29;459.20;;;416.52;;
43038;SDS011;62252;50.668;19.530;2022-10-04T08:17:13;517.05;;;467.02;;
43038;SDS011;62252;50.668;19.530;2022-10-04T08:19:56;521.08;;;471.83;;
43038;SDS011;62252;50.668;19.530;2022-10-04T08:22:40;526.70;;;476.60;;
43038;SDS011;62252;50.668;19.530;2022-10-04T08:25:22;526.67;;;477.17;;
43038;SDS011;62252;50.668;19.530;2022-10-04T08:28:01;541.38;;;490.92;;
43038;SDS011;62252;50.668;19.530;2022-10-04T08:33:55;514.08;;;465.95;;
43038;SDS011;62252;50.668;19.530;2022-10-04T08:36:39;508.85;;;461.35;;
43038;SDS011;62252;50.668;19.530;2022-10-04T08:39:23;536.03;;;487.90;;
43038;SDS011;62252;50.668;19.530;2022-10-04T08:42:07;521.13;;;473.05;;
43038;SDS011;62252;50.668;19.530;2022-10-04T08:54:27;524.22;;;475.33;;
43038;SDS011;62252;50.668;19.530;2022-10-04T08:57:25;522.35;;;473.10;;
43038;SDS011;62252;50.668;19.530;2022-10-04T09:00:21;508.38;;;460.52;;
43038;SDS011;62252;50.668;19.530;2022-10-04T09:03:00;514.15;;;466.23;;
43038;SDS011;62252;50.668;19.530;2022-10-04T09:06:06;519.22;;;471.35;;
43038;SDS011;62252;50.668;19.530;2022-10-04T09:15:20;526.30;;;476.60;;
43038;SDS011;62252;50.668;19.530;2022-10-04T09:18:01;548.70;;;497.08;;
43038;SDS011;62252;50.668;19.530;2022-10-04T09:20:49;521.00;;;471.15;;
43038;SDS011;62252;50.668;19.530;2022-10-04T09:26:30;532.53;;;482.58;;
43038;SDS011;62252;50.668;19.530;2022-10-04T09:29:18;531.40;;;480.67;;
43038;SDS011;62252;50.668;19.530;2022-10-04T09:32:17;535.55;;;483.35;;
43038;SDS011;62252;50.668;19.530;2022-10-04T09:35:09;525.85;;;474.58;;
43038;SDS011;62252;50.668;19.530;2022-10-04T09:38:13;522.47;;;471.90;;
43038;SDS011;62252;50.668;19.530;2022-10-04T09:44:09;517.58;;;467.83;;
43038;SDS011;62252;50.668;19.530;2022-10-04T09:47:08;533.92;;;482.23;;
43038;SDS011;62252;50.668;19.530;2022-10-04T09:53:05;509.92;;;460.00;;
43038;SDS011;62252;50.668;19.530;2022-10-04T09:55:59;527.03;;;476.80;;
43038;SDS011;62252;50.668;19.530;2022-10-04T09:58:50;525.47;;;474.48;;
43038;SDS011;62252;50.668;19.530;2022-10-04T10:01:57;525.03;;;474.40;;
43038;SDS011;62252;50.668;19.530;2022-10-04T10:04:58;519.83;;;468.85;;
43038;SDS011;62252;50.668;19.530;2022-10-04T10:07:53;518.00;;;466.45;;
43038;SDS011;62252;50.668;19.530;2022-10-04T10:10:38;516.35;;;464.55;;
43038;SDS011;62252;50.668;19.530;2022-10-04T10:13:40;545.30;;;492.60;;
43038;SDS011;62252;50.668;19.530;2022-10-04T10:16:39;537.63;;;486.05;;
43038;SDS011;62252;50.668;19.530;2022-10-04T10:19:30;527.83;;;476.25;;
43038;SDS011;62252;50.668;19.530;2022-10-04T10:22:24;546.67;;;493.17;;
43038;SDS011;62252;50.668;19.530;2022-10-04T10:28:13;531.92;;;480.20;;
43038;SDS011;62252;50.668;19.530;2022-10-04T10:39:42;534.83;;;483.75;;
43038;SDS011;62252;50.668;19.530;2022-10-04T10:42:30;551.08;;;498.48;;
43038;SDS011;62252;50.668;19.530;2022-10-04T10:45:22;528.08;;;478.58;;
43038;SDS011;62252;50.668;19.530;2022-10-04T10:48:11;529.25;;;479.83;;
43038;SDS011;62252;50.668;19.530;2022-10-04T10:50:59;534.30;;;484.42;;
43038;SDS011;62252;50.668;19.530;2022-10-04T10:53:41;550.72;;;497.55;;
43038;SDS011;62252;50.668;19.530;2022-10-04T10:56:43;540.67;;;488.58;;
43038;SDS011;62252;50.668;19.530;2022-10-04T11:05:44;532.28;;;480.73;;
43038;SDS011;62252;50.668;19.530;2022-10-04T11:08:44;544.05;;;492.35;;
43038;SDS011;62252;50.668;19.530;2022-10-04T11:14:38;558.22;;;504.15;;
43038;SDS011;62252;50.668;19.530;2022-10-04T11:17:41;552.83;;;501.63;;
43038;SDS011;62252;50.668;19.530;2022-10-04T11:23:49;526.63;;;476.38;;
43038;SDS011;62252;50.668;19.530;2022-10-04T11:26:48;539.15;;;488.50;;
43038;SDS011;62252;50.668;19.530;2022-10-04T11:29:48;539.58;;;488.75;;
43038;SDS011;62252;50.668;19.530;2022-10-04T11:32:42;538.17;;;488.95;;
43038;SDS011;62252;50.668;19.530;2022-10-04T11:35:34;532.80;;;484.02;;
43038;SDS011;62252;50.668;19.530;2022-10-04T11:38:19;530.92;;;480.80;;
43038;SDS011;62252;50.668;19.530;2022-10-04T11:41:11;515.13;;;466.98;;
43038;SDS011;62252;50.668;19.530;2022-10-04T11:44:00;541.50;;;491.42;;
43038;SDS011;62252;50.668;19.530;2022-10-04T11:46:52;534.38;;;484.55;;
43038;SDS011;62252;50.668;19.530;2022-10-04T11:52:37;528.75;;;478.50;;
43038;SDS011;62252;50.668;19.530;2022-10-04T11:55:41;531.15;;;481.35;;
43038;SDS011;62252;50.668;19.530;2022-10-04T11:58:34;552.35;;;500.35;;
43038;SDS011;62252;50.668;19.530;2022-10-04T12:04:32;510.13;;;461.85;;
43038;SDS011;62252;50.668;19.530;2022-10-04T12:07:36;526.78;;;477.35;;
43038;SDS011;62252;50.668;19.530;2022-10-04T12:10:19;566.40;;;511.10;;
43038;SDS011;62252;50.668;19.530;2022-10-04T12:12:58;540.33;;;487.85;;
43038;SDS011;62252;50.668;19.530;2022-10-04T12:16:13;536.33;;;485.08;;
43038;SDS011;62252;50.668;19.530;2022-10-04T12:22:17;530.30;;;479.45;;
43038;SDS011;62252;50.668;19.530;2022-10-04T12:31:08;519.00;;;469.15;;
43038;SDS011;62252;50.668;19.530;2022-10-04T12:33:51;526.78;;;473.95;;
43038;SDS011;62252;50.668;19.530;2022-10-04T12:36:47;533.20;;;481.15;;
43038;SDS011;62252;50.668;19.530;2022-10-04T12:39:31;522.38;;;471.48;;
43038;SDS011;62252;50.668;19.530;2022-10-04T12:42:20;523.20;;;471.13;;
43038;SDS011;62252;50.668;19.530;2022-10-04T12:45:00;531.40;;;480.10;;
43038;SDS011;62252;50.668;19.530;2022-10-04T12:47:54;537.42;;;485.23;;
43038;SDS011;62252;50.668;19.530;2022-10-04T12:50:44;515.33;;;464.33;;
43038;SDS011;62252;50.668;19.530;2022-10-04T12:53:22;520.22;;;469.27;;
43038;SDS011;62252;50.668;19.530;2022-10-04T12:56:05;535.70;;;484.63;;
43038;SDS011;62252;50.668;19.530;2022-10-04T12:58:50;531.80;;;481.38;;
43038;SDS011;62252;50.668;19.530;2022-10-04T13:01:34;530.20;;;478.55;;
43038;SDS011;62252;50.668;19.530;2022-10-04T13:04:17;518.13;;;468.23;;
43038;SDS011;62252;50.668;19.530;2022-10-04T13:07:00;513.20;;;461.85;;
43038;SDS011;62252;50.668;19.530;2022-10-04T13:09:47;511.05;;;460.52;;
43038;SDS011;62252;50.668;19.530;2022-10-04T13:12:28;532.35;;;480.40;;
43038;SDS011;62252;50.668;19.530;2022-10-04T13:15:13;536.20;;;484.27;;
43038;SDS011;62252;50.668;19.530;2022-10-04T13:17:57;522.50;;;471.77;;
43038;SDS011;62252;50.668;19.530;2022-10-04T13:20:43;537.38;;;484.80;;
43038;SDS011;62252;50.668;19.530;2022-10-04T13:23:23;521.15;;;470.08;;
43038;SDS011;62252;50.668;19.530;2022-10-04T13:29:05;529.00;;;478.25;;
43038;SDS011;62252;50.668;19.530;2022-10-04T13:31:49;529.05;;;478.30;;
43038;SDS011;62252;50.668;19.530;2022-10-04T13:34:27;521.65;;;470.90;;
43038;SDS011;62252;50.668;19.530;2022-10-04T13:37:24;528.55;;;476.52;;
43038;SDS011;62252;50.668;19.530;2022-10-04T13:40:18;555.97;;;501.63;;
43038;SDS011;62252;50.668;19.530;2022-10-04T13:43:06;552.95;;;499.73;;
43038;SDS011;62252;50.668;19.530;2022-10-04T13:45:59;535.53;;;483.98;;
43038;SDS011;62252;50.668;19.530;2022-10-04T13:48:43;545.03;;;491.27;;
43038;SDS011;62252;50.668;19.530;2022-10-04T13:51:40;525.03;;;473.63;;
43038;SDS011;62252;50.668;19.530;2022-10-04T13:54:41;526.90;;;476.17;;
43038;SDS011;62252;50.668;19.530;2022-10-04T13:57:30;526.08;;;474.73;;
43038;SDS011;62252;50.668;19.530;2022-10-04T14:00:09;537.42;;;485.88;;
43038;SDS011;62252;50.668;19.530;2022-10-04T14:02:53;504.63;;;454.25;;
43038;SDS011;62252;50.668;19.530;2022-10-04T14:08:49;528.75;;;477.23;;
43038;SDS011;62252;50.668;19.530;2022-10-04T14:15:14;538.63;;;485.95;;
43038;SDS011;62252;50.668;19.530;2022-10-04T14:24:12;542.97;;;491.83;;
43038;SDS011;62252;50.668;19.530;2022-10-04T14:30:15;548.60;;;497.05;;
43038;SDS011;62252;50.668;19.530;2022-10-04T14:39:15;516.92;;;467.60;;
43038;SDS011;62252;50.668;19.530;2022-10-04T14:42:10;536.83;;;485.17;;
43038;SDS011;62252;50.668;19.530;2022-10-04T14:45:10;547.40;;;496.00;;
43038;SDS011;62252;50.668;19.530;2022-10-04T14:54:01;554.83;;;502.60;;
43038;SDS011;62252;50.668;19.530;2022-10-04T14:56:50;544.80;;;494.25;;
43038;SDS011;62252;50.668;19.530;2022-10-04T15:11:37;545.35;;;494.10;;
43038;SDS011;62252;50.668;19.530;2022-10-04T15:17:01;545.05;;;492.30;;
43038;SDS011;62252;50.668;19.530;2022-10-04T15:22:47;550.35;;;497.77;;
43038;SDS011;62252;50.668;19.530;2022-10-04T15:28:10;565.42;;;511.70;;
43038;SDS011;62252;50.668;19.530;2022-10-04T15:31:00;552.80;;;501.10;;
43038;SDS011;62252;50.668;19.530;2022-10-04T15:33:44;543.42;;;492.38;;
43038;SDS011;62252;50.668;19.530;2022-10-04T15:36:31;544.45;;;491.90;;
43038;SDS011;62252;50.668;19.530;2022-10-04T15:42:20;553.63;;;500.83;;
43038;SDS011;62252;50.668;19.530;2022-10-04T15:45:16;560.05;;;507.90;;
43038;SDS011;62252;50.668;19.530;2022-10-04T15:48:21;545.58;;;493.67;;
43038;SDS011;62252;50.668;19.530;2022-10-04T15:51:00;554.17;;;502.35;;
43038;SDS011;62252;50.668;19.530;2022-10-04T15:53:56;557.28;;;503.70;;
43038;SDS011;62252;50.668;19.530;2022-10-04T15:56:47;537.63;;;485.58;;
43038;SDS011;62252;50.668;19.530;2022-10-04T16:05:25;541.28;;;490.05;;
43038;SDS011;62252;50.668;19.530;2022-10-04T16:08:09;528.25;;;478.95;;
43038;SDS011;62252;50.668;19.530;2022-10-04T16:11:08;539.22;;;488.02;;
43038;SDS011;62252;50.668;19.530;2022-10-04T16:14:02;534.95;;;484.05;;
43038;SDS011;62252;50.668;19.530;2022-10-04T16:16:54;544.67;;;494.10;;
